Time;durP1;ratioP1;P1;durP2;ratioP2;P2;SDS_P1;SDS_P2;PMS_P1;PMS_P2;Temp;Humidity;BMP_temperature;BMP_pressure;BME280_temperature;BME280_humidity;BME280_pressure;Samples;Min_cycle;Max_cycle;Signal;HPM_P1;HPM_P2
2023/07/11 00:00:27;;;;;;;6.88;4.43;;;;;;;-145.69;nan;52026.53;5075083;28;20198;-81
2023/07/11 00:02:54;;;;;;;6.82;4.07;;;;;;;-145.69;nan;52028.53;5074855;28;20199;-81
2023/07/11 00:05:21;;;;;;;11.90;4.40;;;;;;;-145.69;nan;52008.72;5074612;28;20262;-81
2023/07/11 00:07:47;;;;;;;10.68;4.15;;;;;;;-145.69;nan;52000.81;5074950;28;20205;-80
2023/07/11 00:10:20;;;;;;;8.25;3.95;;;;;;;-145.69;nan;52012.69;5075006;28;20203;-81
2023/07/11 00:12:47;;;;;;;5.72;3.67;;;;;;;-145.69;nan;52026.53;5075296;28;20333;-80
2023/07/11 00:15:16;;;;;;;7.25;3.70;;;;;;;-145.69;nan;52020.59;5075079;28;20198;-82
2023/07/11 00:17:43;;;;;;;8.18;4.53;;;;;;;-145.69;nan;51988.91;5054936;28;20207;-81
2023/07/11 00:20:13;;;;;;;8.10;4.43;;;;;;;-145.69;nan;52012.69;5054875;28;20211;-81
2023/07/11 00:22:40;;;;;;;7.43;3.78;;;;;;;-145.69;nan;52000.81;5055026;28;20207;-81
2023/07/11 00:25:08;;;;;;;6.95;4.13;;;;;;;-145.69;nan;52032.47;5054828;28;20199;-81
2023/07/11 00:27:36;;;;;;;6.82;4.40;;;;;;;-145.69;nan;52028.53;5073984;28;20191;-81
2023/07/11 00:30:03;;;;;;;6.88;4.10;;;;;;;-145.69;nan;52008.72;5074753;28;20217;-81
2023/07/11 00:32:30;;;;;;;6.20;4.10;;;;;;;-145.69;nan;52014.66;5074392;28;20237;-81
2023/07/11 00:34:56;;;;;;;8.27;4.15;;;;;;;-145.69;nan;52030.50;5074532;28;20657;-81
2023/07/11 00:37:24;;;;;;;6.85;4.07;;;;;;;-145.69;nan;52020.59;5074343;28;20217;-83
2023/07/11 00:39:51;;;;;;;8.50;4.22;;;;;;;-145.69;nan;52012.69;5074757;28;20257;-82
2023/07/11 00:42:17;;;;;;;5.95;3.65;;;;;;;-145.69;nan;52004.75;5073359;28;20680;-82
2023/07/11 00:44:52;;;;;;;7.10;3.70;;;;;;;-145.69;nan;52012.69;5074440;28;20206;-81
2023/07/11 00:47:19;;;;;;;5.72;3.67;;;;;;;-145.69;nan;52004.75;5074128;28;20195;-81
2023/07/11 00:49:47;;;;;;;7.00;3.67;;;;;;;-145.69;nan;51973.06;5074363;28;20199;-82
2023/07/11 00:52:16;;;;;;;7.25;4.00;;;;;;;-145.69;nan;52014.66;5074158;28;20242;-82
2023/07/11 00:54:48;;;;;;;7.22;4.10;;;;;;;-145.69;nan;51973.06;5074120;28;20658;-82
2023/07/11 00:57:18;;;;;;;6.53;3.90;;;;;;;-145.69;nan;51967.13;5074047;28;20195;-83
2023/07/11 00:59:45;;;;;;;8.70;3.45;;;;;;;-145.69;nan;52004.75;5074419;28;20226;-83
2023/07/11 01:02:14;;;;;;;5.45;3.70;;;;;;;-145.69;nan;51996.84;5073852;28;20199;-83
2023/07/11 01:04:41;;;;;;;5.97;3.70;;;;;;;-145.69;nan;51981.00;5073531;28;20199;-82
2023/07/11 01:07:09;;;;;;;6.60;3.40;;;;;;;-145.69;nan;52026.53;5073740;28;20195;-82
2023/07/11 01:09:38;;;;;;;6.63;4.00;;;;;;;-145.69;nan;52016.66;5073969;28;20225;-82
2023/07/11 01:12:13;;;;;;;5.28;3.88;;;;;;;-145.69;nan;52012.69;5072953;28;20690;-82
2023/07/11 01:14:42;;;;;;;6.20;3.65;;;;;;;-145.69;nan;51981.00;5073810;28;20206;-82
2023/07/11 01:17:30;;;;;;;5.28;3.40;;;;;;;-145.69;nan;51982.97;5073762;28;20202;-82
2023/07/11 01:19:58;;;;;;;5.45;3.72;;;;;;;-145.69;nan;51996.84;5073944;28;20199;-83
2023/07/11 01:22:28;;;;;;;7.55;4.03;;;;;;;-145.69;nan;51990.91;5073278;28;20197;-82
2023/07/11 01:24:57;;;;;;;6.18;3.35;;;;;;;-145.69;nan;51996.84;5073384;28;20187;-82
2023/07/11 01:27:24;;;;;;;5.13;3.25;;;;;;;-145.69;nan;52004.75;5073892;28;20217;-82
2023/07/11 01:29:52;;;;;;;7.55;3.20;;;;;;;-145.69;nan;52002.78;5073680;28;20207;-82
2023/07/11 01:32:19;;;;;;;8.23;3.40;;;;;;;-145.69;nan;52008.72;5072768;28;20302;-82
2023/07/11 01:34:46;;;;;;;4.97;3.22;;;;;;;-145.69;nan;51996.84;5073314;28;20207;-82
2023/07/11 01:37:12;;;;;;;6.80;3.60;;;;;;;-145.69;nan;52016.66;5073336;28;20195;-82
2023/07/11 01:39:40;;;;;;;5.90;3.40;;;;;;;-145.69;nan;52016.66;5071444;28;20202;-82
2023/07/11 01:42:07;;;;;;;7.88;3.97;;;;;;;-145.69;nan;52026.53;5073068;28;20199;-81
2023/07/11 01:44:34;;;;;;;5.60;3.38;;;;;;;-145.69;nan;52032.47;5073410;28;20206;-82
2023/07/11 01:47:02;;;;;;;8.00;3.20;;;;;;;-145.69;nan;52004.75;5073121;28;20214;-83
2023/07/11 01:49:28;;;;;;;4.88;3.10;;;;;;;-145.69;nan;52036.44;5072869;28;20694;-82
2023/07/11 01:52:06;;;;;;;6.80;3.35;;;;;;;-145.69;nan;52000.81;5073006;28;20242;-83
2023/07/11 01:54:32;;;;;;;5.07;3.08;;;;;;;-145.69;nan;52000.81;5073039;28;20203;-82
2023/07/11 01:57:01;;;;;;;6.25;3.33;;;;;;;-145.69;nan;52020.59;5073265;28;20194;-82
2023/07/11 01:59:27;;;;;;;5.47;3.40;;;;;;;-145.69;nan;52010.69;5072812;28;20238;-82
2023/07/11 02:01:54;;;;;;;5.72;3.33;;;;;;;-145.69;nan;52028.53;5072415;28;20569;-83
2023/07/11 02:04:21;;;;;;;4.95;3.08;;;;;;;-145.69;nan;52004.75;5072903;28;20199;-81
2023/07/11 02:06:48;;;;;;;7.30;3.08;;;;;;;-145.69;nan;52028.53;5072970;28;20244;-82
2023/07/11 02:09:24;;;;;;;7.07;3.50;;;;;;;-145.69;nan;52022.59;5072933;28;20202;-82
2023/07/11 02:11:51;;;;;;;4.78;3.30;;;;;;;-145.69;nan;52016.66;5073053;28;20202;-83
2023/07/11 02:14:20;;;;;;;5.18;3.40;;;;;;;-145.69;nan;52024.56;5072995;28;20226;-82
2023/07/11 02:16:48;;;;;;;5.47;3.25;;;;;;;-145.69;nan;52046.34;5072643;28;20643;-82
2023/07/11 02:19:17;;;;;;;6.03;3.40;;;;;;;-145.69;nan;52006.75;5072607;28;20198;-82
2023/07/11 02:21:44;;;;;;;8.30;3.38;;;;;;;-145.69;nan;52032.47;5072745;28;20209;-83
2023/07/11 02:24:13;;;;;;;4.53;3.10;;;;;;;-145.69;nan;52012.69;5072582;28;20730;-82
2023/07/11 02:26:40;;;;;;;5.78;3.33;;;;;;;-145.69;nan;52008.72;5072691;28;20209;-83
2023/07/11 02:29:07;;;;;;;7.30;3.38;;;;;;;-145.69;nan;52008.72;5072730;28;20570;-82
2023/07/11 02:31:37;;;;;;;5.97;3.65;;;;;;;-145.69;nan;52042.38;5072513;28;20194;-81
2023/07/11 02:34:04;;;;;;;7.57;3.50;;;;;;;-145.69;nan;52002.78;5072698;28;20321;-81
2023/07/11 02:36:32;;;;;;;4.00;2.72;;;;;;;-145.69;nan;52016.66;5072820;28;20630;-82
2023/07/11 02:38:58;;;;;;;7.20;3.55;;;;;;;-145.69;nan;52018.63;5085589;28;20195;-82
2023/07/11 02:41:25;;;;;;;6.28;3.22;;;;;;;-145.69;nan;52030.50;5072516;28;20573;-82
2023/07/11 02:43:52;;;;;;;6.22;3.03;;;;;;;-145.69;nan;51969.13;5072613;28;20290;-82
2023/07/11 02:46:19;;;;;;;5.90;3.38;;;;;;;-145.69;nan;52016.66;5072009;28;20532;-82
2023/07/11 02:48:47;;;;;;;9.40;3.63;;;;;;;-145.69;nan;52010.69;5072588;28;20302;-82
2023/07/11 02:51:13;;;;;;;6.97;3.42;;;;;;;-145.69;nan;52012.69;5072071;28;20259;-82
2023/07/11 02:53:40;;;;;;;5.40;2.83;;;;;;;-145.69;nan;52000.81;5072697;28;20226;-82
2023/07/11 02:56:07;;;;;;;4.85;2.97;;;;;;;-145.69;nan;52032.47;5072731;28;20637;-82
2023/07/11 02:58:33;;;;;;;9.02;3.45;;;;;;;-145.69;nan;52016.66;5072718;28;20233;-81
2023/07/11 03:01:04;;;;;;;6.70;3.75;;;;;;;-145.69;nan;52032.47;5071754;28;20281;-82
2023/07/11 03:03:31;;;;;;;6.45;3.28;;;;;;;-145.69;nan;52020.59;5072635;28;20210;-82
2023/07/11 03:05:59;;;;;;;6.38;3.30;;;;;;;-145.69;nan;52022.59;5073168;28;20203;-81
2023/07/11 03:08:26;;;;;;;5.75;3.30;;;;;;;-145.69;nan;52002.78;5076443;28;20199;-82
2023/07/11 03:10:52;;;;;;;6.35;3.03;;;;;;;-145.69;nan;52028.53;5075422;28;20206;-82
2023/07/11 03:13:19;;;;;;;4.65;2.90;;;;;;;-145.69;nan;52014.66;5076185;28;20233;-83
2023/07/11 03:15:46;;;;;;;5.25;3.05;;;;;;;-145.69;nan;52024.56;5076001;28;20623;-83
2023/07/11 03:18:13;;;;;;;6.32;3.15;;;;;;;-145.69;nan;52004.75;5076228;28;20210;-83
2023/07/11 03:20:41;;;;;;;6.32;3.53;;;;;;;-145.69;nan;52016.66;5075774;28;20662;-83
2023/07/11 03:23:10;;;;;;;6.25;3.58;;;;;;;-145.69;nan;52024.56;5076114;28;20195;-83
2023/07/11 03:25:37;;;;;;;5.63;3.40;;;;;;;-145.69;nan;52004.75;5075966;28;20634;-82
2023/07/11 03:28:04;;;;;;;5.18;2.78;;;;;;;-145.69;nan;52044.38;5075649;28;20202;-81
2023/07/11 03:30:32;;;;;;;5.30;2.83;;;;;;;-145.69;nan;52018.63;5075703;28;20201;-81
2023/07/11 03:32:58;;;;;;;6.22;3.50;;;;;;;-145.69;nan;52014.66;5075188;28;20309;-82
2023/07/11 03:35:25;;;;;;;5.47;3.17;;;;;;;-145.69;nan;52014.66;5071718;28;20655;-81
2023/07/11 03:37:51;;;;;;;4.72;3.13;;;;;;;-145.69;nan;52016.66;5075504;28;20226;-81
2023/07/11 03:40:19;;;;;;;6.25;2.95;;;;;;;-145.69;nan;52004.75;5075492;28;20195;-82
2023/07/11 03:42:46;;;;;;;7.70;3.35;;;;;;;-145.69;nan;52014.66;5075912;28;20202;-82
2023/07/11 03:45:12;;;;;;;5.13;2.88;;;;;;;-145.69;nan;52024.56;5075477;28;20198;-82
2023/07/11 03:47:39;;;;;;;6.55;3.28;;;;;;;-145.69;nan;52012.69;5075536;28;20291;-82
2023/07/11 03:50:06;;;;;;;4.53;2.92;;;;;;;-145.69;nan;52034.47;5075422;28;20543;-81
2023/07/11 03:52:34;;;;;;;4.72;2.63;;;;;;;-145.69;nan;52032.47;5075077;28;20218;-81
2023/07/11 03:55:00;;;;;;;7.00;3.95;;;;;;;-145.69;nan;51984.97;5074477;28;20310;-82
2023/07/11 03:57:28;;;;;;;5.07;2.95;;;;;;;-145.69;nan;52008.72;5075594;28;20199;-81
2023/07/11 03:59:55;;;;;;;6.47;2.75;;;;;;;-145.69;nan;52022.59;5075106;28;20200;-80
2023/07/11 04:02:21;;;;;;;4.40;3.33;;;;;;;-145.69;nan;52028.53;5075098;28;20206;-81
2023/07/11 04:04:48;;;;;;;5.55;3.15;;;;;;;-145.69;nan;52016.66;5074859;28;20199;-81
2023/07/11 04:07:14;;;;;;;7.50;3.23;;;;;;;-145.69;nan;52006.75;5074225;28;20438;-81
2023/07/11 04:09:41;;;;;;;5.25;3.15;;;;;;;-145.69;nan;52024.56;5074710;28;20202;-82
2023/07/11 04:12:08;;;;;;;6.80;3.00;;;;;;;-145.69;nan;51988.91;5075169;28;20191;-82
2023/07/11 04:14:37;;;;;;;5.53;3.15;;;;;;;-145.69;nan;52012.69;5074870;28;20226;-82
2023/07/11 04:17:04;;;;;;;8.07;3.38;;;;;;;-145.69;nan;52026.53;5074311;28;20195;-82
2023/07/11 04:19:31;;;;;;;5.65;3.33;;;;;;;-145.69;nan;52004.75;5074424;28;20199;-82
2023/07/11 04:21:57;;;;;;;6.78;3.17;;;;;;;-145.69;nan;52000.81;5074805;28;20198;-81
2023/07/11 04:24:24;;;;;;;4.25;3.15;;;;;;;-145.69;nan;52022.59;5074993;28;20203;-83
2023/07/11 04:26:50;;;;;;;11.00;3.40;;;;;;;-145.69;nan;52026.53;5075158;28;20203;-81
2023/07/11 04:29:17;;;;;;;7.97;3.92;;;;;;;-145.69;nan;52022.59;5074618;28;20672;-81
2023/07/11 04:31:44;;;;;;;8.50;3.30;;;;;;;-145.69;nan;52028.53;5074583;28;20202;-82
2023/07/11 04:34:11;;;;;;;7.40;2.70;;;;;;;-145.69;nan;52016.66;5073295;28;20712;-82
2023/07/11 04:36:38;;;;;;;6.78;3.00;;;;;;;-145.69;nan;52022.59;5074131;28;20205;-82
2023/07/11 04:39:04;;;;;;;4.75;2.70;;;;;;;-145.69;nan;52010.69;5074610;28;20206;-82
2023/07/11 04:41:31;;;;;;;4.93;3.33;;;;;;;-145.69;nan;52016.66;5073557;28;20249;-83
2023/07/11 04:43:57;;;;;;;6.38;3.30;;;;;;;-145.69;nan;51990.91;5074494;28;20661;-82
2023/07/11 04:46:25;;;;;;;5.90;3.20;;;;;;;-145.69;nan;52048.31;5074266;28;20194;-82
2023/07/11 04:48:53;;;;;;;6.15;3.03;;;;;;;-145.69;nan;52028.53;5074459;28;20199;-82
2023/07/11 04:51:19;;;;;;;8.05;2.95;;;;;;;-145.69;nan;51998.81;5073955;28;20223;-82
2023/07/11 04:53:46;;;;;;;7.28;3.15;;;;;;;-145.69;nan;52038.44;5074061;28;20222;-82
2023/07/11 04:56:12;;;;;;;11.45;3.10;;;;;;;-145.69;nan;52010.69;5074159;28;20228;-82
2023/07/11 04:58:39;;;;;;;5.25;3.00;;;;;;;-145.69;nan;52012.69;5074345;28;20202;-82
2023/07/11 05:01:08;;;;;;;6.97;2.78;;;;;;;-145.69;nan;51986.94;5073972;28;20199;-83
2023/07/11 05:03:34;;;;;;;10.50;3.60;;;;;;;-145.69;nan;52040.41;5074162;28;20198;-83
2023/07/11 05:06:03;;;;;;;4.80;2.95;;;;;;;-145.69;nan;52004.75;5073672;28;20194;-82
2023/07/11 05:08:30;;;;;;;6.22;2.80;;;;;;;-145.69;nan;51977.03;5074408;28;20199;-82
2023/07/11 05:11:02;;;;;;;5.55;3.15;;;;;;;-145.69;nan;52028.53;5073950;28;20202;-82
2023/07/11 05:13:29;;;;;;;4.90;2.70;;;;;;;-145.69;nan;52006.75;5073549;28;20264;-83
2023/07/11 05:15:59;;;;;;;5.07;2.78;;;;;;;-145.69;nan;51992.88;5073582;28;20234;-82
2023/07/11 05:18:26;;;;;;;7.85;2.90;;;;;;;-145.69;nan;51996.84;5073725;28;20203;-82
2023/07/11 05:20:53;;;;;;;5.13;2.95;;;;;;;-145.69;nan;51996.84;5073233;28;20205;-81
2023/07/11 05:23:22;;;;;;;6.97;3.15;;;;;;;-145.69;nan;52016.66;5073879;28;20198;-82
2023/07/11 05:25:48;;;;;;;5.03;2.80;;;;;;;-145.69;nan;51988.91;5073692;28;20665;-82
2023/07/11 05:28:16;;;;;;;3.92;2.60;;;;;;;-145.69;nan;51986.94;5073508;28;20199;-82
2023/07/11 05:30:42;;;;;;;5.47;2.90;;;;;;;-145.69;nan;51984.97;5073181;28;20191;-82
2023/07/11 05:33:09;;;;;;;5.63;3.00;;;;;;;-145.69;nan;51992.88;5072922;28;20645;-81
2023/07/11 05:35:37;;;;;;;5.07;3.08;;;;;;;-145.69;nan;52004.75;5073136;28;20202;-83
2023/07/11 05:38:03;;;;;;;4.97;2.83;;;;;;;-145.69;nan;51992.88;5073655;28;20210;-81
2023/07/11 05:40:32;;;;;;;6.78;3.22;;;;;;;-145.69;nan;51981.00;5072536;28;20202;-82
2023/07/11 05:42:58;;;;;;;5.32;2.78;;;;;;;-145.69;nan;51961.19;5073033;28;20198;-82
2023/07/11 05:45:25;;;;;;;4.97;2.92;;;;;;;-145.69;nan;51992.88;5061461;28;20203;-83
2023/07/11 05:47:51;;;;;;;4.50;3.03;;;;;;;-145.69;nan;51984.97;5053304;28;20210;-83
2023/07/11 05:50:21;;;;;;;5.68;3.10;;;;;;;-145.69;nan;51949.31;5068174;28;20194;-82
2023/07/11 05:52:48;;;;;;;4.57;2.95;;;;;;;-145.69;nan;51981.00;5073373;28;20669;-83
2023/07/11 05:55:14;;;;;;;6.03;2.80;;;;;;;-145.69;nan;51984.97;5072984;28;20230;-82
2023/07/11 05:57:42;;;;;;;5.85;3.05;;;;;;;-145.69;nan;51953.28;5073227;28;20699;-82
2023/07/11 06:00:10;;;;;;;5.68;2.80;;;;;;;-145.69;nan;51957.25;5072570;28;20199;-86
2023/07/11 06:02:37;;;;;;;5.72;3.13;;;;;;;-145.69;nan;51996.84;5072429;28;20230;-82
2023/07/11 06:05:03;;;;;;;5.05;3.08;;;;;;;-145.69;nan;51973.06;5073420;28;20273;-82
2023/07/11 06:07:30;;;;;;;4.15;2.72;;;;;;;-145.69;nan;51963.19;5072775;28;20683;-82
2023/07/11 06:09:57;;;;;;;6.22;3.35;;;;;;;-145.69;nan;51957.25;5072498;28;20294;-81
2023/07/11 06:12:23;;;;;;;3.97;2.58;;;;;;;-145.69;nan;51945.34;5072746;28;20194;-83
2023/07/11 06:14:52;;;;;;;8.63;3.38;;;;;;;-145.69;nan;51973.06;5072640;28;20258;-82
2023/07/11 06:17:19;;;;;;;4.47;3.22;;;;;;;-145.69;nan;51951.28;5073166;28;20211;-81
2023/07/11 06:19:45;;;;;;;6.45;3.28;;;;;;;-145.69;nan;51953.28;5072954;28;20205;-82
2023/07/11 06:22:12;;;;;;;5.07;3.03;;;;;;;-145.69;nan;51945.34;5072704;28;20328;-85
2023/07/11 06:24:39;;;;;;;4.75;3.17;;;;;;;-145.69;nan;51951.28;5073129;28;20214;-83
2023/07/11 06:27:05;;;;;;;4.50;3.17;;;;;;;-145.69;nan;51967.13;5072823;28;20206;-82
2023/07/11 06:29:32;;;;;;;6.28;3.33;;;;;;;-145.69;nan;51937.44;5072716;28;20222;-83
2023/07/11 06:32:00;;;;;;;8.45;2.92;;;;;;;-145.69;nan;51931.50;5072480;28;20187;-83
2023/07/11 06:34:27;;;;;;;5.40;3.10;;;;;;;-145.69;nan;51919.63;5071794;28;20222;-83
2023/07/11 06:36:53;;;;;;;4.38;3.15;;;;;;;-145.69;nan;51901.78;5072594;28;20601;-83
2023/07/11 06:39:20;;;;;;;5.82;3.28;;;;;;;-145.69;nan;51931.50;5072666;28;20203;-83
2023/07/11 06:41:46;;;;;;;4.13;2.90;;;;;;;-145.69;nan;51925.56;5074870;28;20260;-83
2023/07/11 06:44:13;;;;;;;6.28;3.28;;;;;;;-145.69;nan;51943.38;5076923;28;20198;-84
2023/07/11 06:46:40;;;;;;;3.55;2.97;;;;;;;-145.69;nan;51883.97;5076897;28;20198;-83
2023/07/11 06:49:07;;;;;;;5.30;3.35;;;;;;;-145.69;nan;51957.25;5076059;28;20562;-83
2023/07/11 06:51:34;;;;;;;8.27;3.70;;;;;;;-145.69;nan;51917.63;5076568;28;20241;-83
2023/07/11 06:54:00;;;;;;;5.80;3.75;;;;;;;-145.69;nan;51923.56;5076193;28;20258;-83
2023/07/11 06:56:28;;;;;;;8.93;3.25;;;;;;;-145.69;nan;51925.56;5076609;28;20606;-83
2023/07/11 06:58:54;;;;;;;7.68;3.67;;;;;;;-145.69;nan;51885.94;5075642;28;20280;-84
2023/07/11 07:01:22;;;;;;;4.78;3.35;;;;;;;-145.69;nan;51887.94;5076310;28;20546;-82
2023/07/11 07:03:49;;;;;;;5.75;3.40;;;;;;;-145.69;nan;51899.81;5076233;28;20263;-83
2023/07/11 07:06:19;;;;;;;9.35;3.65;;;;;;;-145.69;nan;51889.91;5076375;28;20209;-84
2023/07/11 07:08:45;;;;;;;5.88;3.75;;;;;;;-145.69;nan;51903.78;5075993;28;20202;-84
2023/07/11 07:11:12;;;;;;;8.98;3.63;;;;;;;-145.69;nan;51874.06;5076274;28;20198;-84
2023/07/11 07:13:38;;;;;;;6.50;3.60;;;;;;;-145.69;nan;51870.13;5076157;28;20210;-83
2023/07/11 07:16:06;;;;;;;8.38;3.47;;;;;;;-145.69;nan;51893.88;5076251;28;20680;-83
2023/07/11 07:18:34;;;;;;;7.60;4.00;;;;;;;-145.69;nan;51883.97;5075308;28;20201;-82
2023/07/11 07:21:02;;;;;;;6.00;3.47;;;;;;;-145.69;nan;51882.00;5075524;28;20198;-84
2023/07/11 07:23:30;;;;;;;7.85;4.00;;;;;;;-145.69;nan;51899.81;5076152;28;20194;-84
2023/07/11 07:25:59;;;;;;;5.60;3.72;;;;;;;-145.69;nan;51866.16;5076227;28;20202;-84
2023/07/11 07:28:26;;;;;;;5.78;3.72;;;;;;;-145.69;nan;51880.00;5075271;28;20210;-84
2023/07/11 07:30:55;;;;;;;9.48;4.03;;;;;;;-145.69;nan;51868.13;5075515;28;20198;-83
2023/07/11 07:33:24;;;;;;;7.15;4.00;;;;;;;-145.69;nan;51901.78;5075793;28;20199;-83
2023/07/11 07:35:54;;;;;;;7.05;4.00;;;;;;;-145.69;nan;51876.06;5075336;28;20681;-84
2023/07/11 07:38:21;;;;;;;7.15;4.32;;;;;;;-145.69;nan;51838.44;5075776;28;20205;-83
2023/07/11 07:40:53;;;;;;;10.13;4.55;;;;;;;-145.69;nan;51842.38;5075842;28;20238;-82
2023/07/11 07:43:19;;;;;;;8.20;4.15;;;;;;;-145.69;nan;51891.88;5074232;28;20202;-83
2023/07/11 07:45:48;;;;;;;6.68;4.03;;;;;;;-145.69;nan;51848.34;5075626;28;20198;-82
2023/07/11 07:48:14;;;;;;;12.68;4.90;;;;;;;-145.69;nan;51860.22;5075580;28;20202;-85
2023/07/11 07:50:41;;;;;;;7.95;4.22;;;;;;;-145.69;nan;51870.13;5075432;28;20226;-85
2023/07/11 07:53:07;;;;;;;9.10;3.90;;;;;;;-145.69;nan;51860.22;5075085;28;20199;-84
2023/07/11 07:55:35;;;;;;;7.22;4.28;;;;;;;-145.69;nan;51862.19;5075240;28;20229;-84
2023/07/11 07:58:03;;;;;;;9.10;4.40;;;;;;;-145.69;nan;51850.31;5074745;28;20195;-83
2023/07/11 08:00:30;;;;;;;7.18;4.15;;;;;;;-145.69;nan;51854.28;5075274;28;20206;-83
2023/07/11 08:02:56;;;;;;;10.68;4.10;;;;;;;-145.69;nan;51836.44;5074952;28;20740;-83
2023/07/11 08:05:23;;;;;;;9.57;3.75;;;;;;;-145.69;nan;51842.38;5074736;28;20217;-85
2023/07/11 08:07:50;;;;;;;8.77;4.63;;;;;;;-145.69;nan;51836.44;5074858;28;20529;-84
2023/07/11 08:10:17;;;;;;;8.98;4.05;;;;;;;-145.69;nan;51826.56;5075072;28;20198;-84
2023/07/11 08:12:44;;;;;;;8.00;3.65;;;;;;;-145.69;nan;51830.50;5073086;28;20194;-83
2023/07/11 08:15:13;;;;;;;7.10;4.25;;;;;;;-145.69;nan;51854.28;5073034;28;20322;-83
2023/07/11 08:17:41;;;;;;;7.00;3.85;;;;;;;-145.69;nan;51844.38;5072920;28;20205;-84
2023/07/11 08:20:10;;;;;;;6.45;3.67;;;;;;;-145.69;nan;51814.66;5072892;28;20202;-82
2023/07/11 08:22:37;;;;;;;9.60;3.97;;;;;;;-145.69;nan;51826.56;5073540;28;20202;-81
2023/07/11 08:25:04;;;;;;;6.10;3.25;;;;;;;-145.69;nan;51818.63;5074365;28;20206;-83
2023/07/11 08:27:30;;;;;;;7.10;3.80;;;;;;;-145.69;nan;51822.59;5074458;28;20199;-83
2023/07/11 08:29:57;;;;;;;7.55;3.85;;;;;;;-145.69;nan;51830.50;5074787;28;20207;-82
2023/07/11 08:32:25;;;;;;;6.75;4.10;;;;;;;-145.69;nan;51834.47;5074710;28;20723;-83
2023/07/11 08:34:51;;;;;;;6.82;3.67;;;;;;;-145.69;nan;51842.38;5074510;28;20257;-85
2023/07/11 08:37:19;;;;;;;8.18;4.10;;;;;;;-145.69;nan;51788.94;5074698;28;20657;-82
2023/07/11 08:39:46;;;;;;;10.73;4.13;;;;;;;-145.69;nan;51832.50;5074551;28;20203;-83
2023/07/11 08:42:24;;;;;;;8.82;4.15;;;;;;;-145.69;nan;51806.75;5074332;28;20203;-82
2023/07/11 08:44:59;;;;;;;8.63;4.15;;;;;;;-145.69;nan;51822.59;5071938;28;20253;-83
2023/07/11 08:47:37;;;;;;;5.85;3.60;;;;;;;-145.69;nan;51802.78;5074521;28;20248;-81
2023/07/11 08:50:10;;;;;;;5.40;3.63;;;;;;;-145.69;nan;51812.69;5074566;28;20205;-83
2023/07/11 08:52:37;;;;;;;7.05;4.20;;;;;;;-145.69;nan;51810.72;5074392;28;20213;-84
2023/07/11 08:55:10;;;;;;;8.25;4.63;;;;;;;-145.69;nan;51822.59;5074056;28;20253;-82
2023/07/11 08:57:43;;;;;;;7.88;3.90;;;;;;;-145.69;nan;51798.81;5074158;28;20659;-82
2023/07/11 09:00:14;;;;;;;7.18;3.50;;;;;;;-145.69;nan;51802.78;5074354;28;20202;-82
2023/07/11 09:02:54;;;;;;;7.88;4.43;;;;;;;-145.69;nan;51824.56;5074397;28;20257;-82
2023/07/11 09:05:34;;;;;;;9.45;4.85;;;;;;;-145.69;nan;51779.03;5072830;28;20700;-81
2023/07/11 09:08:01;;;;;;;9.32;4.72;;;;;;;-145.69;nan;51814.66;5073597;28;20198;-83
2023/07/11 09:10:38;;;;;;;8.85;4.30;;;;;;;-145.69;nan;51798.81;5073668;28;20285;-82
2023/07/11 09:13:15;;;;;;;8.25;4.53;;;;;;;-145.69;nan;51796.84;5073946;28;20205;-82
2023/07/11 09:15:49;;;;;;;7.65;3.95;;;;;;;-145.69;nan;51783.00;5073924;28;20588;-82
2023/07/11 09:18:33;;;;;;;12.80;4.60;;;;;;;-145.69;nan;51810.72;5073803;28;20207;-82
2023/07/11 09:21:13;;;;;;;9.95;4.82;;;;;;;-145.69;nan;51798.81;5053961;28;20203;-82
2023/07/11 09:23:53;;;;;;;9.70;4.75;;;;;;;-145.69;nan;51808.72;5053915;28;20202;-82
2023/07/11 09:26:26;;;;;;;7.55;5.05;;;;;;;-145.69;nan;51788.94;5053815;28;20199;-83
2023/07/11 09:29:00;;;;;;;11.98;4.55;;;;;;;-145.69;nan;51763.19;5053876;28;20206;-82
2023/07/11 09:31:28;;;;;;;7.95;4.78;;;;;;;-145.69;nan;51794.88;5053798;28;20199;-83
2023/07/11 09:33:58;;;;;;;10.40;4.78;;;;;;;-145.69;nan;51786.94;5061932;28;20209;-82
2023/07/11 09:36:30;;;;;;;9.52;5.15;;;;;;;-145.69;nan;51781.00;5071394;28;20229;-83
2023/07/11 09:39:02;;;;;;;8.07;4.70;;;;;;;-145.69;nan;51792.88;5073654;28;20202;-83
2023/07/11 09:41:42;;;;;;;9.10;4.97;;;;;;;-145.69;nan;51767.16;5055509;28;20600;-81
2023/07/11 09:44:10;;;;;;;11.02;5.30;;;;;;;-145.69;nan;51794.88;5053571;28;20205;-83
2023/07/11 09:46:37;;;;;;;8.27;4.63;;;;;;;-145.69;nan;51771.09;5053520;28;20203;-83
2023/07/11 09:49:07;;;;;;;7.57;4.70;;;;;;;-145.69;nan;51761.22;5066077;28;20191;-82
2023/07/11 09:51:38;;;;;;;10.18;5.28;;;;;;;-145.69;nan;51741.41;5072807;28;20626;-83
2023/07/11 09:54:16;;;;;;;9.00;4.82;;;;;;;-145.69;nan;51765.16;5072992;28;20547;-83
2023/07/11 09:56:44;;;;;;;15.40;5.03;;;;;;;-145.69;nan;51753.28;5072815;28;20236;-81
2023/07/11 09:59:13;;;;;;;8.43;4.32;;;;;;;-145.69;nan;51771.09;5073197;28;20619;-82
2023/07/11 10:01:40;;;;;;;16.83;4.63;;;;;;;-145.69;nan;51741.41;5072510;28;20198;-82
2023/07/11 10:04:10;;;;;;;7.97;4.40;;;;;;;-145.69;nan;51719.63;5072624;28;20669;-82
2023/07/11 10:06:41;;;;;;;9.43;4.65;;;;;;;-145.69;nan;51747.34;5073038;28;20205;-83
2023/07/11 10:09:16;;;;;;;11.38;4.38;;;;;;;-145.69;nan;51743.38;5073013;28;20202;-82
2023/07/11 10:11:48;;;;;;;11.20;4.60;;;;;;;-145.69;nan;51723.59;5072946;28;20195;-80
2023/07/11 10:14:18;;;;;;;7.15;4.65;;;;;;;-145.69;nan;51735.47;5072057;28;20229;-83
2023/07/11 10:16:46;;;;;;;6.60;4.20;;;;;;;-145.69;nan;51721.59;5072712;28;20230;-83
2023/07/11 10:19:16;;;;;;;12.50;4.68;;;;;;;-145.69;nan;51719.63;5072833;28;20230;-82
2023/07/11 10:21:46;;;;;;;8.07;4.30;;;;;;;-145.69;nan;51707.75;5072877;28;20206;-83
2023/07/11 10:24:18;;;;;;;7.75;4.60;;;;;;;-145.69;nan;51711.72;5072629;28;20600;-84
2023/07/11 10:26:47;;;;;;;10.50;5.18;;;;;;;-145.69;nan;51719.63;5072686;28;20222;-84
2023/07/11 10:29:18;;;;;;;7.57;4.20;;;;;;;-145.69;nan;51699.81;5072449;28;20657;-83
2023/07/11 10:32:09;;;;;;;7.00;4.35;;;;;;;-145.69;nan;51703.78;5072816;28;20207;-84
2023/07/11 10:34:44;;;;;;;6.43;3.90;;;;;;;-145.69;nan;51731.50;5072161;28;20191;-84
2023/07/11 10:37:25;;;;;;;9.35;4.45;;;;;;;-145.69;nan;51719.63;5072762;28;20202;-83
2023/07/11 10:40:05;;;;;;;6.70;4.30;;;;;;;-145.69;nan;51727.53;5069693;28;20209;-82
2023/07/11 10:42:39;;;;;;;10.02;4.75;;;;;;;-145.69;nan;51701.81;5054044;28;20233;-84
2023/07/11 10:45:14;;;;;;;8.20;4.28;;;;;;;-145.69;nan;51699.81;5072172;28;20198;-83
2023/07/11 10:47:55;;;;;;;10.43;4.68;;;;;;;-145.69;nan;51678.03;5072572;28;20198;-82
2023/07/11 10:50:35;;;;;;;9.43;4.60;;;;;;;-145.69;nan;51703.78;5071476;28;20435;-81
2023/07/11 10:53:12;;;;;;;6.65;4.15;;;;;;;-145.69;nan;51709.72;5072120;28;20198;-82
2023/07/11 10:55:47;;;;;;;9.93;4.40;;;;;;;-145.69;nan;51727.53;5072485;28;20226;-81
2023/07/11 10:58:20;;;;;;;12.80;5.10;;;;;;;-145.69;nan;51719.63;5072749;28;20199;-81
2023/07/11 11:01:00;;;;;;;8.48;4.43;;;;;;;-145.69;nan;51723.59;5072056;28;20194;-81
2023/07/11 11:03:37;;;;;;;8.57;4.50;;;;;;;-145.69;nan;51707.75;5071945;28;20206;-81
2023/07/11 11:06:24;;;;;;;10.20;4.22;;;;;;;-145.69;nan;51739.44;5071722;28;20256;-81
2023/07/11 11:09:04;;;;;;;10.43;4.18;;;;;;;-145.69;nan;51699.81;5072281;28;20671;-81
2023/07/11 11:11:39;;;;;;;7.68;4.45;;;;;;;-145.69;nan;51731.50;5072026;28;20226;-83
2023/07/11 11:14:11;;;;;;;6.78;3.85;;;;;;;-145.69;nan;51717.66;5071969;28;20202;-81
2023/07/11 11:16:48;;;;;;;8.85;4.35;;;;;;;-145.69;nan;51691.91;5071851;28;20222;-80
2023/07/11 11:19:25;;;;;;;8.65;4.30;;;;;;;-145.69;nan;51678.03;5072193;28;20201;-81
2023/07/11 11:22:00;;;;;;;7.40;4.35;;;;;;;-145.69;nan;51687.94;5072444;28;20293;-82
2023/07/11 11:24:49;;;;;;;12.63;4.97;;;;;;;-145.69;nan;51662.22;5072167;28;20285;-80
2023/07/11 11:27:31;;;;;;;10.27;4.28;;;;;;;-145.69;nan;51674.09;5073461;28;20205;-81
2023/07/11 11:30:07;;;;;;;9.40;4.32;;;;;;;-145.69;nan;51676.06;5075658;28;20203;-82
2023/07/11 11:32:41;;;;;;;9.48;4.40;;;;;;;-145.69;nan;51668.16;5075742;28;20551;-81
2023/07/11 11:35:18;;;;;;;11.43;4.45;;;;;;;-145.69;nan;51691.91;5075337;28;20281;-81
2023/07/11 11:38:04;;;;;;;8.82;4.20;;;;;;;-145.69;nan;51652.31;5075043;28;20210;-81
2023/07/11 11:40:35;;;;;;;5.90;4.03;;;;;;;-145.69;nan;51660.22;5074928;28;20230;-81